Kasane, Botswana

5:17 PM CAT on September 02, 2014 (GMT +0200)
Kasane | Change Station
CLOSE
Current Station
Airport
Location: Kasane,
Elevation: 3281 ft
Nearby Weather Stations

Elev 3281 ft 17.83 °S, 25.16 °E | Updated 17 minutes ago

Clear
Clear
77 °F
Feels Like 77 °F
N
6
Wind Variable Wind from South

Today
High -- | Low -- °F
--% Chance of Precip.
Yesterday
High -- | Low -- °F
Precip. -- in
6:25 AM 6:12 PM
First Quarter, 52% visible
Pressure 30.12 in
Visibility -9999.0 miles
Clouds
Dew Point 28 °F
Humidity 17%
Rainfall 0.00 in
Snow Depth Not available.
UV Not available.
Pollen Not available.
Air Quality Not available.
Flu Activity Not available.
METAR FBKE 021500Z 17005KT 130V210 CAVOK 25/M02 Q1020

More Conditions Fewer Conditions

Pressure 30.12 in
Visibility -9999.0 miles
Clouds
Dew Point 28 °F
Humidity 17%
Rainfall 0.00 in
Snow Depth Not available.
UV Not available.
Pollen Not available.
Air Quality Not available.
Flu Activity Not available.
METAR FBKE 021500Z 17005KT 130V210 CAVOK 25/M02 Q1020

More Conditions Fewer Conditions

10-Day Weather Forecast

Almanac

Astronomy

Sep. 02, 2014 Rise Set
Actual Time 6:25 AM CAT 6:12 PM CAT
Civil Twilight 6:04 AM CAT 6:34 PM CAT
Nautical Twilight 5:38 AM CAT 6:59 PM CAT
Astronomical Twilight 5:13 AM CAT 7:24 PM CAT
Moon 11:42 AM CAT 12:03 AM CAT
Length of Visible Light 12h 30m
Length of Day
11h 46m
Tomorrow will be 0m 58s longer.
First Quarter, 52% of the Moon is Illuminated
Today
First Quarter
Sep 8
Full
Sep 15
Last Quarter
Sep 24
New
Oct 1
First Quarter

Today's Extremes

Country Highs Country Lows

Community

WunderPhotos

Upload Photos

1,749,690 photos uploaded!

Nearby

Snow Depth

Not available.

Earthquake Activity

City Distance Mag. Time & Date
No recent earthquake activity has been reported nearby.
Minimum magnitude displayed is 2.5.

Coastal Water Temperatures

Place Temperature
No Stations Reporting

Nearby Weather Stations